Airfield :
LOGIN :

Register | Disclaimer

   EN    FR    IT 

 










Legend :    VFR   Marginal VFR   IFR   Intensive IFR   Very Intensive IFR
Visi :
Ceiling :
>= 8 km
>= 3000ft
5 to 8 km
1000 to 3000 ft
1500m to 5 km
500 to 1000 ft
800 to 1500m
200 to 500 ft
< 800m
< 200 ft
Symbols :   Thunderstorms  Fog  Heavy snow  Heavy precipitations  Wind > 20 kt
SIGMETs :     Misc.  Thunderstorms  Icing  Turbulence  Mountain Waves  Volcanic Ashes






- Airport Elevation : 120 ft
- IATA code : MME


EGNV - Durham Tees valley

CURRENT METAR :
  • 231920Z 29004KT 9999 -RA FEW011 SCT017 BKN024 14/13 Q1010

EXPIRED METARs :
  • 231850Z 28004KT 9999 -SHRA SCT015 SCT032 14/13 Q1009
  • 231820Z 30005KT 9999 -SHRA SCT015 SCT029 14/12 Q1009 RESHRA
  • 231750Z 30006KT 9999 4000SE SHRA SCT010 BKN015 15/12 Q1009
  • 231720Z 33005KT 310V010 9999 VCSH SCT015 BKN025 16/13 Q1008
  • 231650Z VRB03KT 9999 VCSH FEW006 SCT016 BKN025 15/13 Q1008
  • 231620Z 32004KT 290V350 9999 -RA SCT008 BKN025 15/12 Q1008
  • 231550Z 31006KT 9999 VCSH SCT010 BKN022 15/13 Q1008
  • 231520Z 31005KT 290V010 9999 VCSH SCT009 BKN040 15/13 Q1008
  • 231450Z 34006KT 300V010 7000 VCSH SCT008 BKN029 14/12 Q1007

TAF TAF EGNV
Valid from the 23 at 18:00 until the 23 at 21:00 UTC


231705Z 2318/2321 26006KT 9999 BKN020
PROB40
TEMPO 2318/2321 6000 RA -RADZ BKN010
ATIS : +44 9012 018 111



MET'MAP, your aeronautical weather chart ! - Copyright ORBIFLY December 2007 - Disclaimer

ORBIFLY MET'MAP TEAM :

Programming & Development : Alexandra Zaïnal
Original concept : Baudouin d'Aumeries
Technical & hardware support : Manuel Goepfert
Assistance : Marc-Olivier Méhu




SOURCES & CREDITS :

   NOAA